Airfield :
LOGIN :

Register | Disclaimer

   EN    FR    IT 

 










Legend :    VFR   Marginal VFR   IFR   Intensive IFR   Very Intensive IFR
Visi :
Ceiling :
>= 8 km
>= 3000ft
5 to 8 km
1000 to 3000 ft
1500m to 5 km
500 to 1000 ft
800 to 1500m
200 to 500 ft
< 800m
< 200 ft
Symbols :   Thunderstorms  Fog  Heavy snow  Heavy precipitations  Wind > 20 kt
SIGMETs :     Misc.  Thunderstorms  Icing  Turbulence  Mountain Waves  Volcanic Ashes







- Airport Elevation : 1273 ft
- IATA code : LJU


LJLJ - Ljubljana

CURRENT METAR :
  • 190800Z 12005KT 050V160 9999 FEW065 23/12 Q1022 NOSIG

EXPIRED METARs :
  • 190730Z 07004KT 030V110 9999 FEW060 22/14 Q1022 NOSIG
  • 190700Z 08004KT 040V100 9999 FEW060 21/14 Q1022 NOSIG
  • 190630Z 09003KT 050V130 9999 FEW060 20/13 Q1022 NOSIG
  • 190600Z 11003KT 070V150 9999 FEW060 19/12 Q1022 NOSIG
  • 190530Z VRB01KT 9999 FEW060 17/12 Q1022 NOSIG

TAF TAF LJLJ
Valid from the 19 at 09:00 until the 20 at 09:00 UTC


190800Z 1909/2009 08004KT 9999 FEW060
PROB30
TEMPO 1914/1917 SCT060TCU
BECMG 1923/2001 30004KT CAVOK
No reported NOTAMs for that airfield.



MET'MAP, your aeronautical weather chart ! - Copyright ORBIFLY December 2007 - Disclaimer

ORBIFLY MET'MAP TEAM :

Programming & Development : Alexandra Zaïnal
Concept & Development : Baudouin d'Aumeries
Co-Development & Prog : Marc-Olivier Méhu
Technical & hardware support : Manuel Goepfert

Contact : metmap@orbifly.com




SOURCES & CREDITS :

   NOAA